Terminal Aerodrome Forecast
Issued by NWS

Home | Current Version | Previous Version | Text Only | Print | Product List | Glossary On
Versions: 1 2 3 4 5 6 7 8 9 10 11 12 13 14 15 16 17 18 19 20 21 22 23 24 25 26 27 28 29 30 31 32 33 34 35 36 37 38 39 40 41 42 43 44 45 46 47 48 49
000
FTUS45 KBOU 302019 AAB
TAFAPA
TAF AMD
KAPA 302019Z 3020/3118 16010KT P6SM FEW080 BKN140
     FM302200 34014KT P6SM SCT080 BKN140
      TEMPO 3022/3024 VRB20G35KT -TSRA BKN080CB
     FM310100 15012KT P6SM FEW090 SCT140
     FM310700 35010KT P6SM FEW140 SCT220
     FM311000 34007KT P6SM SCT006 OVC012
     FM311500 08010KT P6SM SCT012 BKN022=

USA.gov is the U.S. government's official web portal to all federal, state and local government web resources and services.